sensor_id;sensor_type;location;lat;lon;timestamp;P1;durP1;ratioP1;P2;durP2;ratioP2
33160;SDS011;19522;45.656;11.302;2022-12-18T00:00:41;9.68;;;7.30;;
33160;SDS011;19522;45.656;11.302;2022-12-18T00:03:07;8.00;;;5.97;;
33160;SDS011;19522;45.656;11.302;2022-12-18T00:05:33;10.98;;;6.82;;
33160;SDS011;19522;45.656;11.302;2022-12-18T00:07:59;8.00;;;6.35;;
33160;SDS011;19522;45.656;11.302;2022-12-18T00:10:24;9.57;;;7.07;;
33160;SDS011;19522;45.656;11.302;2022-12-18T00:12:50;8.25;;;6.40;;
33160;SDS011;19522;45.656;11.302;2022-12-18T00:15:15;9.38;;;6.47;;
33160;SDS011;19522;45.656;11.302;2022-12-18T00:17:41;8.23;;;6.15;;
33160;SDS011;19522;45.656;11.302;2022-12-18T00:20:07;9.88;;;5.63;;
33160;SDS011;19522;45.656;11.302;2022-12-18T00:22:33;8.80;;;5.50;;
33160;SDS011;19522;45.656;11.302;2022-12-18T00:24:58;7.00;;;5.80;;
33160;SDS011;19522;45.656;11.302;2022-12-18T00:27:24;6.40;;;5.22;;
33160;SDS011;19522;45.656;11.302;2022-12-18T00:29:49;5.70;;;5.07;;
33160;SDS011;19522;45.656;11.302;2022-12-18T00:32:15;7.55;;;5.10;;
33160;SDS011;19522;45.656;11.302;2022-12-18T00:34:40;7.68;;;6.38;;
33160;SDS011;19522;45.656;11.302;2022-12-18T00:37:06;7.65;;;5.78;;
33160;SDS011;19522;45.656;11.302;2022-12-18T00:39:31;11.27;;;6.75;;
33160;SDS011;19522;45.656;11.302;2022-12-18T00:41:57;10.57;;;6.38;;
33160;SDS011;19522;45.656;11.302;2022-12-18T00:44:41;10.57;;;6.07;;
33160;SDS011;19522;45.656;11.302;2022-12-18T00:47:06;10.45;;;6.47;;
33160;SDS011;19522;45.656;11.302;2022-12-18T00:49:32;10.10;;;6.55;;
33160;SDS011;19522;45.656;11.302;2022-12-18T00:51:57;11.32;;;7.18;;
33160;SDS011;19522;45.656;11.302;2022-12-18T00:54:23;11.00;;;7.15;;
33160;SDS011;19522;45.656;11.302;2022-12-18T00:56:48;9.40;;;6.40;;
33160;SDS011;19522;45.656;11.302;2022-12-18T00:59:14;9.25;;;6.03;;
33160;SDS011;19522;45.656;11.302;2022-12-18T01:01:40;10.50;;;6.38;;
33160;SDS011;19522;45.656;11.302;2022-12-18T01:04:05;6.75;;;5.65;;
33160;SDS011;19522;45.656;11.302;2022-12-18T01:06:31;8.38;;;5.15;;
33160;SDS011;19522;45.656;11.302;2022-12-18T01:08:56;7.68;;;6.00;;
33160;SDS011;19522;45.656;11.302;2022-12-18T01:11:22;8.98;;;6.45;;
33160;SDS011;19522;45.656;11.302;2022-12-18T01:13:48;8.00;;;6.35;;
33160;SDS011;19522;45.656;11.302;2022-12-18T01:16:14;7.95;;;5.85;;
33160;SDS011;19522;45.656;11.302;2022-12-18T01:18:41;8.57;;;5.75;;
33160;SDS011;19522;45.656;11.302;2022-12-18T01:21:11;7.68;;;5.57;;
33160;SDS011;19522;45.656;11.302;2022-12-18T01:23:39;8.95;;;6.75;;
33160;SDS011;19522;45.656;11.302;2022-12-18T01:26:06;7.65;;;5.78;;
33160;SDS011;19522;45.656;11.302;2022-12-18T01:28:33;7.65;;;5.95;;
33160;SDS011;19522;45.656;11.302;2022-12-18T01:31:09;8.20;;;6.20;;
33160;SDS011;19522;45.656;11.302;2022-12-18T01:33:38;10.82;;;7.43;;
33160;SDS011;19522;45.656;11.302;2022-12-18T01:36:04;12.48;;;7.60;;
33160;SDS011;19522;45.656;11.302;2022-12-18T01:38:30;9.15;;;6.00;;
33160;SDS011;19522;45.656;11.302;2022-12-18T01:40:57;12.73;;;7.32;;
33160;SDS011;19522;45.656;11.302;2022-12-18T01:43:43;11.90;;;6.82;;
33160;SDS011;19522;45.656;11.302;2022-12-18T01:46:15;12.18;;;7.07;;
33160;SDS011;19522;45.656;11.302;2022-12-18T01:48:43;11.55;;;7.13;;
33160;SDS011;19522;45.656;11.302;2022-12-18T01:51:11;12.00;;;6.95;;
33160;SDS011;19522;45.656;11.302;2022-12-18T01:53:38;8.68;;;5.68;;
33160;SDS011;19522;45.656;11.302;2022-12-18T01:56:07;7.45;;;5.82;;
33160;SDS011;19522;45.656;11.302;2022-12-18T02:01:13;8.73;;;6.20;;
33160;SDS011;19522;45.656;11.302;2022-12-18T02:03:42;7.78;;;5.93;;
33160;SDS011;19522;45.656;11.302;2022-12-18T02:06:11;7.13;;;5.75;;
33160;SDS011;19522;45.656;11.302;2022-12-18T02:17:05;6.75;;;5.20;;
33160;SDS011;19522;45.656;11.302;2022-12-18T02:19:40;7.00;;;5.25;;
33160;SDS011;19522;45.656;11.302;2022-12-18T02:28:06;6.40;;;4.82;;
33160;SDS011;19522;45.656;11.302;2022-12-18T02:30:36;5.95;;;4.75;;
33160;SDS011;19522;45.656;11.302;2022-12-18T02:33:04;6.85;;;5.32;;
33160;SDS011;19522;45.656;11.302;2022-12-18T02:35:33;7.10;;;5.45;;
33160;SDS011;19522;45.656;11.302;2022-12-18T02:38:00;6.40;;;4.78;;
33160;SDS011;19522;45.656;11.302;2022-12-18T02:40:28;6.85;;;4.93;;
33160;SDS011;19522;45.656;11.302;2022-12-18T02:42:55;7.28;;;4.95;;
33160;SDS011;19522;45.656;11.302;2022-12-18T02:45:27;6.28;;;4.35;;
33160;SDS011;19522;45.656;11.302;2022-12-18T02:47:52;6.85;;;5.10;;
33160;SDS011;19522;45.656;11.302;2022-12-18T02:50:33;5.53;;;4.55;;
33160;SDS011;19522;45.656;11.302;2022-12-18T02:53:06;6.88;;;4.65;;
33160;SDS011;19522;45.656;11.302;2022-12-18T03:03:43;6.53;;;4.50;;
33160;SDS011;19522;45.656;11.302;2022-12-18T03:06:24;6.13;;;4.55;;
33160;SDS011;19522;45.656;11.302;2022-12-18T03:08:59;6.57;;;4.78;;
33160;SDS011;19522;45.656;11.302;2022-12-18T03:14:16;7.03;;;4.60;;
33160;SDS011;19522;45.656;11.302;2022-12-18T03:16:46;5.75;;;4.68;;
33160;SDS011;19522;45.656;11.302;2022-12-18T03:19:15;5.78;;;4.20;;
33160;SDS011;19522;45.656;11.302;2022-12-18T03:21:48;5.60;;;4.63;;
33160;SDS011;19522;45.656;11.302;2022-12-18T03:24:18;7.55;;;4.20;;
33160;SDS011;19522;45.656;11.302;2022-12-18T03:26:47;6.25;;;4.28;;
33160;SDS011;19522;45.656;11.302;2022-12-18T03:29:24;5.82;;;4.05;;
33160;SDS011;19522;45.656;11.302;2022-12-18T03:31:57;6.68;;;4.72;;
33160;SDS011;19522;45.656;11.302;2022-12-18T03:34:30;7.38;;;3.97;;
33160;SDS011;19522;45.656;11.302;2022-12-18T03:37:02;5.20;;;3.95;;
33160;SDS011;19522;45.656;11.302;2022-12-18T03:39:29;7.10;;;4.57;;
33160;SDS011;19522;45.656;11.302;2022-12-18T03:42:15;6.03;;;4.20;;
33160;SDS011;19522;45.656;11.302;2022-12-18T03:47:29;5.07;;;3.25;;
33160;SDS011;19522;45.656;11.302;2022-12-18T03:50:07;6.15;;;3.85;;
33160;SDS011;19522;45.656;11.302;2022-12-18T03:55:14;5.00;;;4.10;;
33160;SDS011;19522;45.656;11.302;2022-12-18T03:57:41;8.02;;;5.00;;
33160;SDS011;19522;45.656;11.302;2022-12-18T04:00:11;5.90;;;4.32;;
33160;SDS011;19522;45.656;11.302;2022-12-18T04:02:40;6.78;;;4.30;;
33160;SDS011;19522;45.656;11.302;2022-12-18T04:05:11;7.15;;;4.68;;
33160;SDS011;19522;45.656;11.302;2022-12-18T04:07:38;5.75;;;4.80;;
33160;SDS011;19522;45.656;11.302;2022-12-18T04:10:06;4.57;;;3.75;;
33160;SDS011;19522;45.656;11.302;2022-12-18T04:12:33;5.28;;;3.97;;
33160;SDS011;19522;45.656;11.302;2022-12-18T04:14:58;5.53;;;4.20;;
33160;SDS011;19522;45.656;11.302;2022-12-18T04:17:24;4.47;;;3.72;;
33160;SDS011;19522;45.656;11.302;2022-12-18T04:19:50;5.03;;;4.05;;
33160;SDS011;19522;45.656;11.302;2022-12-18T04:22:15;5.18;;;4.32;;
33160;SDS011;19522;45.656;11.302;2022-12-18T04:24:41;4.00;;;3.60;;
33160;SDS011;19522;45.656;11.302;2022-12-18T04:27:06;6.05;;;4.75;;
33160;SDS011;19522;45.656;11.302;2022-12-18T04:29:32;5.32;;;4.10;;
33160;SDS011;19522;45.656;11.302;2022-12-18T04:31:57;6.05;;;3.90;;
33160;SDS011;19522;45.656;11.302;2022-12-18T04:34:23;4.95;;;3.97;;
33160;SDS011;19522;45.656;11.302;2022-12-18T04:36:48;5.70;;;4.32;;
33160;SDS011;19522;45.656;11.302;2022-12-18T04:39:14;5.35;;;4.43;;
33160;SDS011;19522;45.656;11.302;2022-12-18T04:41:42;4.72;;;3.88;;
33160;SDS011;19522;45.656;11.302;2022-12-18T04:44:08;5.75;;;4.00;;
33160;SDS011;19522;45.656;11.302;2022-12-18T04:46:33;4.60;;;3.60;;
33160;SDS011;19522;45.656;11.302;2022-12-18T04:48:59;5.40;;;4.07;;
33160;SDS011;19522;45.656;11.302;2022-12-18T04:51:24;5.32;;;4.07;;
33160;SDS011;19522;45.656;11.302;2022-12-18T04:53:50;5.97;;;4.10;;
33160;SDS011;19522;45.656;11.302;2022-12-18T04:56:15;6.57;;;4.30;;
33160;SDS011;19522;45.656;11.302;2022-12-18T04:58:42;6.30;;;4.40;;
33160;SDS011;19522;45.656;11.302;2022-12-18T05:01:09;7.22;;;4.35;;
33160;SDS011;19522;45.656;11.302;2022-12-18T05:03:36;5.47;;;4.10;;
33160;SDS011;19522;45.656;11.302;2022-12-18T05:06:02;6.20;;;4.22;;
33160;SDS011;19522;45.656;11.302;2022-12-18T05:08:28;7.38;;;6.68;;
33160;SDS011;19522;45.656;11.302;2022-12-18T05:11:02;5.70;;;4.43;;
33160;SDS011;19522;45.656;11.302;2022-12-18T05:13:29;5.40;;;4.40;;
33160;SDS011;19522;45.656;11.302;2022-12-18T05:15:56;5.50;;;4.38;;
33160;SDS011;19522;45.656;11.302;2022-12-18T05:18:22;5.15;;;4.28;;
33160;SDS011;19522;45.656;11.302;2022-12-18T05:20:48;5.60;;;4.25;;
33160;SDS011;19522;45.656;11.302;2022-12-18T05:23:17;5.38;;;4.30;;
33160;SDS011;19522;45.656;11.302;2022-12-18T05:25:50;5.80;;;4.20;;
33160;SDS011;19522;45.656;11.302;2022-12-18T05:28:20;5.10;;;3.90;;
33160;SDS011;19522;45.656;11.302;2022-12-18T05:30:49;5.75;;;4.20;;
33160;SDS011;19522;45.656;11.302;2022-12-18T05:33:16;7.85;;;4.63;;
33160;SDS011;19522;45.656;11.302;2022-12-18T05:35:42;7.25;;;4.25;;
33160;SDS011;19522;45.656;11.302;2022-12-18T05:38:08;4.93;;;4.15;;
33160;SDS011;19522;45.656;11.302;2022-12-18T05:40:33;5.72;;;4.00;;
33160;SDS011;19522;45.656;11.302;2022-12-18T05:42:59;5.50;;;4.53;;
33160;SDS011;19522;45.656;11.302;2022-12-18T05:45:24;8.15;;;4.78;;
33160;SDS011;19522;45.656;11.302;2022-12-18T05:47:50;6.78;;;4.50;;
33160;SDS011;19522;45.656;11.302;2022-12-18T05:50:15;5.65;;;4.45;;
33160;SDS011;19522;45.656;11.302;2022-12-18T05:52:41;8.07;;;5.60;;
33160;SDS011;19522;45.656;11.302;2022-12-18T05:55:07;12.80;;;5.60;;
33160;SDS011;19522;45.656;11.302;2022-12-18T05:57:32;10.38;;;7.40;;
33160;SDS011;19522;45.656;11.302;2022-12-18T05:59:58;7.38;;;5.82;;
33160;SDS011;19522;45.656;11.302;2022-12-18T06:02:23;10.38;;;7.13;;
33160;SDS011;19522;45.656;11.302;2022-12-18T06:04:49;20.60;;;11.43;;
33160;SDS011;19522;45.656;11.302;2022-12-18T06:07:14;17.08;;;10.43;;
33160;SDS011;19522;45.656;11.302;2022-12-18T06:09:40;7.95;;;6.18;;
33160;SDS011;19522;45.656;11.302;2022-12-18T06:12:06;7.05;;;5.35;;
33160;SDS011;19522;45.656;11.302;2022-12-18T06:14:31;8.13;;;5.88;;
33160;SDS011;19522;45.656;11.302;2022-12-18T06:16:57;7.50;;;5.85;;
33160;SDS011;19522;45.656;11.302;2022-12-18T06:19:22;7.72;;;6.18;;
33160;SDS011;19522;45.656;11.302;2022-12-18T06:21:49;7.88;;;5.65;;
33160;SDS011;19522;45.656;11.302;2022-12-18T06:24:15;7.97;;;7.05;;
33160;SDS011;19522;45.656;11.302;2022-12-18T06:26:40;10.10;;;7.53;;
33160;SDS011;19522;45.656;11.302;2022-12-18T06:29:06;6.93;;;5.72;;
33160;SDS011;19522;45.656;11.302;2022-12-18T06:31:32;10.35;;;8.48;;
33160;SDS011;19522;45.656;11.302;2022-12-18T06:33:57;7.95;;;6.22;;
33160;SDS011;19522;45.656;11.302;2022-12-18T06:36:23;10.02;;;7.30;;
33160;SDS011;19522;45.656;11.302;2022-12-18T06:38:48;11.02;;;6.43;;
33160;SDS011;19522;45.656;11.302;2022-12-18T06:41:18;7.80;;;6.63;;
33160;SDS011;19522;45.656;11.302;2022-12-18T06:43:45;6.82;;;5.40;;
33160;SDS011;19522;45.656;11.302;2022-12-18T06:46:11;6.70;;;5.20;;
33160;SDS011;19522;45.656;11.302;2022-12-18T06:48:37;7.05;;;5.50;;
33160;SDS011;19522;45.656;11.302;2022-12-18T06:51:03;7.97;;;7.00;;
33160;SDS011;19522;45.656;11.302;2022-12-18T06:53:29;9.80;;;7.78;;
33160;SDS011;19522;45.656;11.302;2022-12-18T06:56:02;9.07;;;6.45;;
33160;SDS011;19522;45.656;11.302;2022-12-18T06:58:29;8.85;;;6.15;;
33160;SDS011;19522;45.656;11.302;2022-12-18T07:01:01;10.45;;;7.57;;
33160;SDS011;19522;45.656;11.302;2022-12-18T07:03:28;18.77;;;16.77;;
33160;SDS011;19522;45.656;11.302;2022-12-18T07:05:54;16.35;;;14.02;;
33160;SDS011;19522;45.656;11.302;2022-12-18T07:08:19;16.58;;;14.57;;
33160;SDS011;19522;45.656;11.302;2022-12-18T07:10:45;14.32;;;11.80;;
33160;SDS011;19522;45.656;11.302;2022-12-18T07:13:10;13.02;;;8.93;;
33160;SDS011;19522;45.656;11.302;2022-12-18T07:15:36;9.95;;;8.57;;
33160;SDS011;19522;45.656;11.302;2022-12-18T07:18:02;10.70;;;8.63;;
33160;SDS011;19522;45.656;11.302;2022-12-18T07:20:27;7.72;;;6.90;;
33160;SDS011;19522;45.656;11.302;2022-12-18T07:22:53;8.32;;;7.47;;
33160;SDS011;19522;45.656;11.302;2022-12-18T07:25:18;9.18;;;6.70;;
33160;SDS011;19522;45.656;11.302;2022-12-18T07:27:44;8.07;;;7.28;;
33160;SDS011;19522;45.656;11.302;2022-12-18T07:30:09;8.07;;;6.32;;
33160;SDS011;19522;45.656;11.302;2022-12-18T07:32:35;8.55;;;7.10;;
33160;SDS011;19522;45.656;11.302;2022-12-18T07:35:01;10.95;;;8.55;;
33160;SDS011;19522;45.656;11.302;2022-12-18T07:37:26;10.15;;;8.13;;
33160;SDS011;19522;45.656;11.302;2022-12-18T07:39:52;10.95;;;8.32;;
33160;SDS011;19522;45.656;11.302;2022-12-18T07:42:17;10.45;;;8.15;;
33160;SDS011;19522;45.656;11.302;2022-12-18T07:44:58;9.48;;;7.70;;
33160;SDS011;19522;45.656;11.302;2022-12-18T07:47:25;9.32;;;7.50;;
33160;SDS011;19522;45.656;11.302;2022-12-18T07:49:50;10.48;;;8.70;;
33160;SDS011;19522;45.656;11.302;2022-12-18T07:52:16;10.25;;;8.88;;
33160;SDS011;19522;45.656;11.302;2022-12-18T07:54:41;13.52;;;9.32;;
33160;SDS011;19522;45.656;11.302;2022-12-18T07:57:10;13.10;;;10.05;;
33160;SDS011;19522;45.656;11.302;2022-12-18T07:59:36;14.52;;;10.18;;
33160;SDS011;19522;45.656;11.302;2022-12-18T08:02:02;12.65;;;10.55;;
33160;SDS011;19522;45.656;11.302;2022-12-18T08:04:28;11.57;;;10.30;;
33160;SDS011;19522;45.656;11.302;2022-12-18T08:06:53;15.32;;;11.40;;
33160;SDS011;19522;45.656;11.302;2022-12-18T08:09:19;18.02;;;11.93;;
33160;SDS011;19522;45.656;11.302;2022-12-18T08:11:44;13.07;;;10.65;;
33160;SDS011;19522;45.656;11.302;2022-12-18T08:14:10;19.42;;;13.38;;
33160;SDS011;19522;45.656;11.302;2022-12-18T08:16:35;23.30;;;14.65;;
33160;SDS011;19522;45.656;11.302;2022-12-18T08:19:01;19.45;;;13.93;;
33160;SDS011;19522;45.656;11.302;2022-12-18T08:21:27;18.05;;;12.75;;
33160;SDS011;19522;45.656;11.302;2022-12-18T08:23:55;17.08;;;12.18;;
33160;SDS011;19522;45.656;11.302;2022-12-18T08:26:22;16.92;;;12.15;;
33160;SDS011;19522;45.656;11.302;2022-12-18T08:28:50;18.85;;;12.40;;
33160;SDS011;19522;45.656;11.302;2022-12-18T08:31:16;16.65;;;12.93;;
33160;SDS011;19522;45.656;11.302;2022-12-18T08:33:42;16.83;;;12.57;;
33160;SDS011;19522;45.656;11.302;2022-12-18T08:36:08;19.02;;;13.50;;
33160;SDS011;19522;45.656;11.302;2022-12-18T08:38:35;23.27;;;15.18;;
33160;SDS011;19522;45.656;11.302;2022-12-18T08:41:07;23.50;;;15.65;;
33160;SDS011;19522;45.656;11.302;2022-12-18T08:43:34;25.63;;;17.13;;
33160;SDS011;19522;45.656;11.302;2022-12-18T08:46:19;24.25;;;15.95;;
33160;SDS011;19522;45.656;11.302;2022-12-18T08:48:46;30.00;;;17.63;;
33160;SDS011;19522;45.656;11.302;2022-12-18T08:51:12;41.05;;;21.63;;
33160;SDS011;19522;45.656;11.302;2022-12-18T08:53:37;41.00;;;23.70;;
33160;SDS011;19522;45.656;11.302;2022-12-18T08:56:03;43.53;;;25.98;;
33160;SDS011;19522;45.656;11.302;2022-12-18T08:58:29;31.50;;;21.13;;
33160;SDS011;19522;45.656;11.302;2022-12-18T09:01:06;24.45;;;17.25;;
33160;SDS011;19522;45.656;11.302;2022-12-18T09:03:34;25.75;;;18.85;;
33160;SDS011;19522;45.656;11.302;2022-12-18T09:06:00;16.65;;;11.10;;
33160;SDS011;19522;45.656;11.302;2022-12-18T09:08:26;18.42;;;13.43;;
33160;SDS011;19522;45.656;11.302;2022-12-18T09:10:51;20.25;;;13.98;;
33160;SDS011;19522;45.656;11.302;2022-12-18T09:13:17;18.67;;;13.38;;
33160;SDS011;19522;45.656;11.302;2022-12-18T09:15:44;21.00;;;14.20;;
33160;SDS011;19522;45.656;11.302;2022-12-18T09:18:12;18.80;;;12.95;;
33160;SDS011;19522;45.656;11.302;2022-12-18T09:20:38;19.85;;;13.55;;
33160;SDS011;19522;45.656;11.302;2022-12-18T09:23:05;19.48;;;13.32;;
33160;SDS011;19522;45.656;11.302;2022-12-18T09:25:31;27.23;;;16.15;;
33160;SDS011;19522;45.656;11.302;2022-12-18T09:28:09;21.20;;;12.60;;
33160;SDS011;19522;45.656;11.302;2022-12-18T09:30:40;21.98;;;15.30;;
33160;SDS011;19522;45.656;11.302;2022-12-18T09:33:07;16.25;;;12.18;;
33160;SDS011;19522;45.656;11.302;2022-12-18T09:35:35;17.73;;;12.98;;
33160;SDS011;19522;45.656;11.302;2022-12-18T09:38:04;19.58;;;13.82;;
33160;SDS011;19522;45.656;11.302;2022-12-18T09:40:33;20.60;;;14.02;;
33160;SDS011;19522;45.656;11.302;2022-12-18T09:43:03;25.80;;;18.42;;
33160;SDS011;19522;45.656;11.302;2022-12-18T09:45:30;23.50;;;17.23;;
33160;SDS011;19522;45.656;11.302;2022-12-18T09:48:05;23.63;;;17.95;;
33160;SDS011;19522;45.656;11.302;2022-12-18T09:51:06;24.23;;;16.13;;
33160;SDS011;19522;45.656;11.302;2022-12-18T09:53:40;43.25;;;27.85;;
33160;SDS011;19522;45.656;11.302;2022-12-18T09:56:10;48.30;;;30.30;;
33160;SDS011;19522;45.656;11.302;2022-12-18T09:58:41;37.30;;;25.25;;
33160;SDS011;19522;45.656;11.302;2022-12-18T10:01:14;45.50;;;29.42;;
33160;SDS011;19522;45.656;11.302;2022-12-18T10:03:43;39.08;;;26.08;;
33160;SDS011;19522;45.656;11.302;2022-12-18T10:17:35;14.77;;;10.25;;
33160;SDS011;19522;45.656;11.302;2022-12-18T10:25:34;13.10;;;10.82;;
33160;SDS011;19522;45.656;11.302;2022-12-18T10:28:16;13.55;;;10.60;;
33160;SDS011;19522;45.656;11.302;2022-12-18T10:30:44;16.25;;;11.85;;
33160;SDS011;19522;45.656;11.302;2022-12-18T10:33:28;16.85;;;12.45;;
33160;SDS011;19522;45.656;11.302;2022-12-18T10:35:56;12.05;;;8.85;;
33160;SDS011;19522;45.656;11.302;2022-12-18T10:38:24;11.18;;;8.85;;
33160;SDS011;19522;45.656;11.302;2022-12-18T10:41:21;11.55;;;7.70;;
33160;SDS011;19522;45.656;11.302;2022-12-18T10:44:11;10.27;;;7.60;;
33160;SDS011;19522;45.656;11.302;2022-12-18T10:46:41;9.93;;;7.78;;
33160;SDS011;19522;45.656;11.302;2022-12-18T10:49:07;12.32;;;9.70;;
33160;SDS011;19522;45.656;11.302;2022-12-18T10:51:48;9.07;;;6.65;;
33160;SDS011;19522;45.656;11.302;2022-12-18T10:54:15;8.02;;;6.07;;
33160;SDS011;19522;45.656;11.302;2022-12-18T10:56:44;9.43;;;6.20;;
33160;SDS011;19522;45.656;11.302;2022-12-18T10:59:12;7.47;;;5.85;;
33160;SDS011;19522;45.656;11.302;2022-12-18T11:04:24;8.30;;;6.03;;
33160;SDS011;19522;45.656;11.302;2022-12-18T11:09:32;7.43;;;5.85;;
33160;SDS011;19522;45.656;11.302;2022-12-18T11:12:23;8.40;;;5.93;;
33160;SDS011;19522;45.656;11.302;2022-12-18T11:17:38;7.40;;;5.57;;
33160;SDS011;19522;45.656;11.302;2022-12-18T11:20:06;7.35;;;5.85;;
33160;SDS011;19522;45.656;11.302;2022-12-18T11:22:56;7.55;;;6.07;;
33160;SDS011;19522;45.656;11.302;2022-12-18T11:25:27;8.88;;;6.53;;
33160;SDS011;19522;45.656;11.302;2022-12-18T11:27:55;10.07;;;6.53;;
33160;SDS011;19522;45.656;11.302;2022-12-18T11:30:24;9.30;;;7.20;;
33160;SDS011;19522;45.656;11.302;2022-12-18T11:33:08;8.82;;;6.78;;
33160;SDS011;19522;45.656;11.302;2022-12-18T11:38:20;7.97;;;6.60;;
33160;SDS011;19522;45.656;11.302;2022-12-18T11:40:49;8.95;;;7.50;;
33160;SDS011;19522;45.656;11.302;2022-12-18T11:43:21;9.70;;;7.90;;
33160;SDS011;19522;45.656;11.302;2022-12-18T11:45:55;9.57;;;7.65;;
33160;SDS011;19522;45.656;11.302;2022-12-18T11:48:32;9.48;;;7.70;;
33160;SDS011;19522;45.656;11.302;2022-12-18T11:51:03;10.05;;;8.10;;
33160;SDS011;19522;45.656;11.302;2022-12-18T11:53:34;9.85;;;8.05;;
33160;SDS011;19522;45.656;11.302;2022-12-18T11:58:51;13.35;;;8.27;;
33160;SDS011;19522;45.656;11.302;2022-12-18T12:07:15;12.13;;;8.82;;
33160;SDS011;19522;45.656;11.302;2022-12-18T12:21:16;10.82;;;8.07;;
33160;SDS011;19522;45.656;11.302;2022-12-18T12:26:52;11.55;;;9.52;;
33160;SDS011;19522;45.656;11.302;2022-12-18T12:32:07;11.97;;;8.77;;
33160;SDS011;19522;45.656;11.302;2022-12-18T12:40:54;11.82;;;9.30;;
33160;SDS011;19522;45.656;11.302;2022-12-18T12:43:53;15.27;;;9.82;;
33160;SDS011;19522;45.656;11.302;2022-12-18T12:46:31;15.68;;;9.80;;
33160;SDS011;19522;45.656;11.302;2022-12-18T12:49:09;10.93;;;9.15;;
33160;SDS011;19522;45.656;11.302;2022-12-18T12:51:43;10.60;;;8.75;;
33160;SDS011;19522;45.656;11.302;2022-12-18T12:54:17;10.95;;;8.82;;
33160;SDS011;19522;45.656;11.302;2022-12-18T13:07:50;11.43;;;8.80;;
33160;SDS011;19522;45.656;11.302;2022-12-18T13:18:31;12.02;;;9.45;;
33160;SDS011;19522;45.656;11.302;2022-12-18T13:21:05;12.90;;;8.95;;
33160;SDS011;19522;45.656;11.302;2022-12-18T13:23:47;12.10;;;8.93;;
33160;SDS011;19522;45.656;11.302;2022-12-18T13:31:14;15.85;;;10.07;;
33160;SDS011;19522;45.656;11.302;2022-12-18T13:36:39;11.15;;;8.73;;
33160;SDS011;19522;45.656;11.302;2022-12-18T13:44:55;14.38;;;10.60;;
33160;SDS011;19522;45.656;11.302;2022-12-18T13:47:27;13.63;;;9.68;;
33160;SDS011;19522;45.656;11.302;2022-12-18T13:50:23;13.15;;;9.90;;
33160;SDS011;19522;45.656;11.302;2022-12-18T13:52:53;13.05;;;9.70;;
33160;SDS011;19522;45.656;11.302;2022-12-18T13:55:19;15.63;;;9.90;;
33160;SDS011;19522;45.656;11.302;2022-12-18T13:57:47;13.23;;;9.63;;
33160;SDS011;19522;45.656;11.302;2022-12-18T14:02:44;14.95;;;10.25;;
33160;SDS011;19522;45.656;11.302;2022-12-18T14:05:24;12.45;;;9.55;;
33160;SDS011;19522;45.656;11.302;2022-12-18T14:07:53;13.95;;;9.73;;
33160;SDS011;19522;45.656;11.302;2022-12-18T14:10:19;12.35;;;9.80;;
33160;SDS011;19522;45.656;11.302;2022-12-18T14:12:47;12.90;;;9.98;;
33160;SDS011;19522;45.656;11.302;2022-12-18T14:17:59;17.15;;;11.00;;
33160;SDS011;19522;45.656;11.302;2022-12-18T14:20:31;16.60;;;10.98;;
33160;SDS011;19522;45.656;11.302;2022-12-18T14:22:58;18.25;;;13.07;;
33160;SDS011;19522;45.656;11.302;2022-12-18T14:25:28;18.08;;;14.32;;
33160;SDS011;19522;45.656;11.302;2022-12-18T14:30:40;22.65;;;15.50;;
33160;SDS011;19522;45.656;11.302;2022-12-18T14:35:42;22.05;;;15.13;;
33160;SDS011;19522;45.656;11.302;2022-12-18T14:38:22;22.60;;;15.68;;
33160;SDS011;19522;45.656;11.302;2022-12-18T14:43:30;23.05;;;16.45;;
33160;SDS011;19522;45.656;11.302;2022-12-18T14:46:01;24.00;;;16.80;;
33160;SDS011;19522;45.656;11.302;2022-12-18T14:51:16;26.35;;;18.35;;
33160;SDS011;19522;45.656;11.302;2022-12-18T14:53:46;25.95;;;17.35;;
33160;SDS011;19522;45.656;11.302;2022-12-18T14:56:18;24.45;;;16.63;;
33160;SDS011;19522;45.656;11.302;2022-12-18T14:58:52;20.55;;;14.80;;
33160;SDS011;19522;45.656;11.302;2022-12-18T15:01:21;16.65;;;13.07;;
33160;SDS011;19522;45.656;11.302;2022-12-18T15:03:53;31.27;;;21.92;;
33160;SDS011;19522;45.656;11.302;2022-12-18T15:06:27;32.25;;;22.52;;
33160;SDS011;19522;45.656;11.302;2022-12-18T15:08:57;27.38;;;20.77;;
33160;SDS011;19522;45.656;11.302;2022-12-18T15:17:01;31.23;;;22.35;;
33160;SDS011;19522;45.656;11.302;2022-12-18T15:19:35;28.10;;;19.98;;
33160;SDS011;19522;45.656;11.302;2022-12-18T15:22:11;31.13;;;20.05;;
33160;SDS011;19522;45.656;11.302;2022-12-18T15:24:47;27.80;;;20.65;;
33160;SDS011;19522;45.656;11.302;2022-12-18T15:30:01;40.08;;;25.42;;
33160;SDS011;19522;45.656;11.302;2022-12-18T15:32:33;40.22;;;24.17;;
33160;SDS011;19522;45.656;11.302;2022-12-18T15:37:38;33.03;;;21.73;;
33160;SDS011;19522;45.656;11.302;2022-12-18T15:40:13;30.55;;;20.98;;
33160;SDS011;19522;45.656;11.302;2022-12-18T15:42:41;34.17;;;23.15;;
33160;SDS011;19522;45.656;11.302;2022-12-18T15:47:55;32.10;;;20.45;;
33160;SDS011;19522;45.656;11.302;2022-12-18T15:50:32;29.08;;;20.17;;
33160;SDS011;19522;45.656;11.302;2022-12-18T15:52:58;33.83;;;22.92;;
33160;SDS011;19522;45.656;11.302;2022-12-18T15:55:24;41.97;;;28.70;;
33160;SDS011;19522;45.656;11.302;2022-12-18T15:58:09;42.25;;;29.30;;
33160;SDS011;19522;45.656;11.302;2022-12-18T16:00:43;42.80;;;28.55;;
33160;SDS011;19522;45.656;11.302;2022-12-18T16:03:09;33.83;;;22.95;;
33160;SDS011;19522;45.656;11.302;2022-12-18T16:05:35;35.40;;;23.70;;
33160;SDS011;19522;45.656;11.302;2022-12-18T16:08:09;36.17;;;24.55;;
33160;SDS011;19522;45.656;11.302;2022-12-18T16:10:34;36.63;;;26.02;;
33160;SDS011;19522;45.656;11.302;2022-12-18T16:13:00;38.30;;;26.73;;
33160;SDS011;19522;45.656;11.302;2022-12-18T16:15:30;41.08;;;26.48;;
33160;SDS011;19522;45.656;11.302;2022-12-18T16:17:56;37.92;;;25.00;;
33160;SDS011;19522;45.656;11.302;2022-12-18T16:20:22;38.13;;;25.35;;
33160;SDS011;19522;45.656;11.302;2022-12-18T16:22:48;51.83;;;30.80;;
33160;SDS011;19522;45.656;11.302;2022-12-18T16:25:20;45.03;;;29.80;;
33160;SDS011;19522;45.656;11.302;2022-12-18T16:27:49;47.35;;;31.55;;
33160;SDS011;19522;45.656;11.302;2022-12-18T16:30:17;38.65;;;27.00;;
33160;SDS011;19522;45.656;11.302;2022-12-18T16:32:48;35.75;;;26.75;;
33160;SDS011;19522;45.656;11.302;2022-12-18T16:35:23;32.35;;;24.33;;
33160;SDS011;19522;45.656;11.302;2022-12-18T16:37:51;33.38;;;24.70;;
33160;SDS011;19522;45.656;11.302;2022-12-18T16:40:38;32.88;;;22.27;;
33160;SDS011;19522;45.656;11.302;2022-12-18T16:43:27;33.35;;;24.45;;
33160;SDS011;19522;45.656;11.302;2022-12-18T16:46:06;32.53;;;24.30;;
33160;SDS011;19522;45.656;11.302;2022-12-18T16:48:32;40.20;;;28.20;;
33160;SDS011;19522;45.656;11.302;2022-12-18T16:51:01;39.63;;;27.67;;
33160;SDS011;19522;45.656;11.302;2022-12-18T16:53:28;34.55;;;26.02;;
33160;SDS011;19522;45.656;11.302;2022-12-18T16:55:57;32.72;;;24.52;;
33160;SDS011;19522;45.656;11.302;2022-12-18T16:58:23;36.58;;;26.02;;
33160;SDS011;19522;45.656;11.302;2022-12-18T17:00:49;36.13;;;26.25;;
33160;SDS011;19522;45.656;11.302;2022-12-18T17:03:20;40.50;;;27.85;;
33160;SDS011;19522;45.656;11.302;2022-12-18T17:05:46;34.75;;;24.23;;
33160;SDS011;19522;45.656;11.302;2022-12-18T17:08:16;35.17;;;27.10;;
33160;SDS011;19522;45.656;11.302;2022-12-18T17:10:41;37.58;;;28.40;;